createdAt,value
2018-01-31T01:53:30.645Z,9.07
2018-01-31T01:55:57.817Z,10.50
2018-01-31T01:58:24.770Z,10.37
2018-01-31T02:00:52.471Z,9.63
2018-01-31T02:03:19.364Z,8.20
2018-01-31T02:05:46.247Z,9.13
2018-01-31T02:08:13.221Z,8.00
2018-01-31T02:10:40.188Z,8.87
2018-01-31T02:13:07.053Z,8.57
2018-01-31T02:15:34.035Z,8.67
2018-01-31T02:18:00.903Z,7.60
2018-01-31T02:20:28.126Z,7.80
2018-01-31T02:22:55.127Z,7.70
2018-01-31T02:25:22.012Z,8.30
2018-01-31T02:27:48.939Z,8.10
2018-01-31T02:30:16.634Z,8.50
2018-01-31T02:32:43.613Z,8.40
2018-01-31T02:35:10.510Z,7.50
2018-01-31T02:37:37.551Z,7.07
2018-01-31T02:40:04.450Z,7.90
2018-01-31T02:42:31.407Z,7.53
2018-01-31T02:44:58.311Z,6.43
2018-01-31T02:47:25.268Z,6.53
2018-01-31T02:49:52.202Z,5.93
2018-01-31T02:52:19.096Z,6.70
2018-01-31T02:54:46.031Z,5.87
2018-01-31T02:57:13.027Z,5.87
2018-01-31T02:59:39.972Z,6.07
2018-01-31T03:02:07.678Z,5.67
2018-01-31T03:04:34.574Z,6.90
2018-01-31T03:07:02.294Z,6.73
2018-01-31T03:09:29.173Z,6.17
2018-01-31T03:11:56.142Z,5.70
2018-01-31T03:14:23.024Z,8.57
2018-01-31T03:16:49.904Z,5.77
2018-01-31T03:19:16.848Z,6.17
2018-01-31T03:21:43.842Z,6.33
2018-01-31T03:24:10.871Z,6.97
2018-01-31T03:26:37.763Z,5.87
2018-01-31T03:29:04.660Z,5.60
2018-01-31T03:31:31.611Z,6.20
2018-01-31T03:33:58.562Z,6.37
2018-01-31T03:36:25.455Z,5.80
2018-01-31T03:38:52.388Z,6.40
2018-01-31T03:41:19.289Z,6.43
2018-01-31T03:43:46.254Z,6.70
2018-01-31T03:46:13.171Z,5.30
2018-01-31T03:48:40.926Z,5.63
2018-01-31T03:51:07.805Z,6.07
2018-01-31T03:53:34.767Z,5.30
2018-01-31T03:56:01.675Z,6.00
2018-01-31T03:58:29.363Z,4.80
2018-01-31T04:00:56.298Z,5.30
2018-01-31T04:03:23.214Z,4.87
2018-01-31T04:05:50.178Z,4.60
2018-01-31T04:08:17.867Z,4.70
2018-01-31T04:10:44.811Z,4.50
2018-01-31T04:13:11.758Z,4.50
2018-01-31T04:15:38.703Z,4.57
2018-01-31T04:18:05.580Z,4.40
2018-01-31T04:20:32.524Z,3.40
2018-01-31T04:22:59.497Z,4.53
2018-01-31T04:25:26.393Z,3.60
2018-01-31T04:27:53.356Z,4.30
2018-01-31T04:30:20.289Z,3.47
2018-01-31T04:32:47.196Z,3.40
2018-01-31T04:35:14.891Z,3.07
2018-01-31T04:37:41.792Z,3.40
2018-01-31T04:40:08.718Z,3.27
2018-01-31T04:42:35.598Z,3.53
2018-01-31T04:45:02.564Z,2.83
2018-01-31T04:47:29.438Z,3.27
2018-01-31T04:49:56.371Z,2.60
2018-01-31T04:52:23.346Z,2.80
2018-01-31T04:54:50.294Z,2.73
2018-01-31T04:57:17.230Z,3.10
2018-01-31T04:59:44.116Z,2.73
2018-01-31T05:02:11.407Z,2.90
2018-01-31T05:04:38.322Z,2.80
2018-01-31T05:07:05.946Z,2.70
2018-01-31T05:09:32.890Z,3.50
2018-01-31T05:11:59.781Z,3.37
2018-01-31T05:14:26.720Z,2.80
2018-01-31T05:16:54.423Z,3.23
2018-01-31T05:19:21.372Z,3.20
2018-01-31T05:21:48.318Z,3.60
2018-01-31T05:24:15.361Z,2.90
2018-01-31T05:26:50.794Z,2.97
2018-01-31T05:29:18.223Z,2.93
2018-01-31T05:31:48.627Z,3.40
2018-01-31T05:34:15.773Z,3.20
2018-01-31T05:36:42.802Z,2.67
2018-01-31T05:39:09.835Z,2.40
2018-01-31T05:41:36.724Z,2.70
2018-01-31T05:44:04.508Z,3.10
2018-01-31T05:46:32.122Z,2.93
2018-01-31T05:48:59.788Z,2.30
2018-01-31T05:51:26.804Z,2.40
2018-01-31T05:53:53.758Z,2.50
2018-01-31T05:56:20.702Z,2.60
2018-01-31T05:58:47.573Z,2.50
2018-01-31T06:01:14.459Z,2.27
2018-01-31T06:03:41.386Z,2.97
2018-01-31T06:06:08.251Z,2.53
2018-01-31T06:08:44.212Z,2.57
2018-01-31T06:11:11.107Z,2.90
2018-01-31T06:13:38.055Z,2.50
2018-01-31T06:16:04.939Z,2.33
2018-01-31T06:18:31.801Z,2.80
2018-01-31T06:20:59.552Z,2.47
2018-01-31T06:23:26.434Z,2.37
2018-01-31T06:25:53.382Z,2.93
2018-01-31T06:28:20.242Z,2.43
2018-01-31T06:30:47.120Z,3.00
2018-01-31T06:33:14.155Z,2.70
2018-01-31T06:35:41.062Z,2.80
2018-01-31T06:38:08.075Z,3.27
2018-01-31T06:40:35.775Z,2.60
2018-01-31T06:43:02.663Z,2.50
2018-01-31T06:45:29.591Z,3.37
2018-01-31T06:47:56.525Z,3.20
2018-01-31T06:50:23.552Z,3.53
2018-01-31T06:52:50.431Z,3.30
2018-01-31T06:55:17.325Z,3.07
2018-01-31T06:57:45.040Z,3.30
2018-01-31T07:00:12.037Z,2.70
2018-01-31T07:02:39.747Z,2.70
2018-01-31T07:05:06.694Z,3.77
2018-01-31T07:07:33.735Z,3.23
2018-01-31T07:10:00.730Z,2.43
2018-01-31T07:12:27.631Z,3.23
2018-01-31T07:14:54.583Z,3.20
2018-01-31T07:17:21.550Z,3.10
2018-01-31T07:19:48.450Z,2.93
2018-01-31T07:22:15.406Z,3.00
2018-01-31T07:24:42.346Z,2.83
2018-01-31T07:27:09.263Z,2.57
2018-01-31T07:29:37.000Z,2.30
2018-01-31T07:32:06.243Z,2.67
2018-01-31T07:34:36.712Z,4.00
2018-01-31T07:37:06.074Z,2.83
2018-01-31T07:39:35.479Z,3.00
2018-01-31T07:42:05.673Z,2.67
2018-01-31T07:44:35.207Z,3.00
2018-01-31T07:47:04.653Z,2.50
2018-01-31T07:49:32.429Z,3.20
2018-01-31T07:51:59.383Z,3.00
2018-01-31T07:54:28.523Z,3.00
2018-01-31T07:56:55.690Z,3.07
2018-01-31T07:59:22.671Z,2.90
2018-01-31T08:01:49.702Z,2.50
2018-01-31T08:04:16.601Z,3.00
2018-01-31T08:06:44.514Z,2.60
2018-01-31T08:09:11.851Z,2.00
2018-01-31T08:11:38.940Z,2.30
2018-01-31T08:14:05.916Z,2.17
2018-01-31T08:16:32.792Z,2.30
2018-01-31T08:18:59.659Z,2.10
2018-01-31T08:21:26.665Z,2.20
2018-01-31T08:23:53.571Z,2.30
2018-01-31T08:26:20.498Z,2.30
2018-01-31T08:28:47.373Z,2.00
2018-01-31T08:31:14.332Z,1.80
2018-01-31T08:33:41.187Z,2.47
2018-01-31T08:36:08.877Z,2.17
2018-01-31T08:38:35.915Z,1.87
2018-01-31T08:41:02.807Z,1.80
2018-01-31T08:43:29.778Z,1.90
2018-01-31T08:45:56.737Z,2.10
2018-01-31T08:48:24.555Z,1.80
2018-01-31T08:50:51.445Z,2.30
2018-01-31T08:53:19.074Z,1.80
2018-01-31T08:55:46.041Z,1.50
2018-01-31T08:58:12.925Z,1.70
2018-01-31T09:00:39.861Z,2.07
2018-01-31T09:03:06.800Z,1.57
2018-01-31T09:05:34.486Z,1.97
2018-01-31T09:08:01.387Z,1.40
2018-01-31T09:10:28.408Z,2.20
2018-01-31T09:12:55.359Z,2.00
2018-01-31T09:15:22.375Z,1.90
2018-01-31T09:17:49.383Z,1.40
2018-01-31T09:20:16.347Z,1.77
2018-01-31T09:22:43.230Z,1.50
2018-01-31T09:25:10.184Z,1.70
2018-01-31T09:27:37.078Z,1.80
2018-01-31T09:30:04.807Z,2.27
2018-01-31T09:32:31.763Z,1.60
2018-01-31T09:34:58.704Z,1.90
2018-01-31T09:37:25.572Z,1.20
2018-01-31T09:39:52.519Z,1.33
2018-01-31T09:42:19.474Z,1.30
2018-01-31T09:44:47.167Z,0.87
2018-01-31T09:47:14.103Z,1.10
2018-01-31T09:49:40.976Z,1.30
2018-01-31T09:52:07.972Z,1.27
2018-01-31T09:54:35.602Z,0.90
2018-01-31T09:57:02.565Z,1.17
2018-01-31T09:59:29.451Z,1.33
2018-01-31T10:01:56.404Z,1.20
2018-01-31T10:04:23.291Z,1.10
2018-01-31T10:06:50.170Z,1.30
2018-01-31T10:09:17.861Z,1.10
2018-01-31T10:11:44.803Z,1.03
2018-01-31T10:14:11.687Z,1.23
2018-01-31T10:16:38.714Z,1.07
2018-01-31T10:19:05.599Z,1.17
2018-01-31T10:21:32.558Z,1.10
2018-01-31T10:24:00.256Z,1.10
2018-01-31T10:26:27.212Z,1.67
2018-01-31T10:28:54.100Z,1.20
2018-01-31T10:31:21.058Z,1.20
2018-01-31T10:33:48.676Z,1.40
2018-01-31T10:36:15.569Z,1.27
2018-01-31T10:38:42.522Z,1.50
2018-01-31T10:41:09.503Z,1.40
2018-01-31T10:43:36.535Z,1.57
2018-01-31T10:46:03.434Z,1.73
2018-01-31T10:48:30.388Z,1.60
2018-01-31T10:50:57.277Z,1.53
2018-01-31T10:53:24.244Z,1.53
2018-01-31T10:58:18.931Z,1.83
2018-01-31T11:00:45.810Z,1.67
2018-01-31T11:03:12.781Z,1.60
2018-01-31T11:05:39.731Z,1.60
2018-01-31T11:08:06.679Z,2.30
2018-01-31T11:10:33.634Z,1.60
2018-01-31T11:13:01.379Z,2.00
2018-01-31T11:15:28.343Z,1.50
2018-01-31T11:17:56.045Z,1.80
2018-01-31T11:20:22.986Z,1.30
2018-01-31T11:22:49.924Z,1.63
2018-01-31T11:25:16.902Z,2.13
2018-01-31T11:27:43.864Z,1.80
2018-01-31T11:30:10.830Z,2.07
2018-01-31T11:32:37.743Z,2.40
2018-01-31T11:35:04.710Z,2.43
2018-01-31T11:37:31.627Z,3.70
2018-01-31T11:39:58.607Z,2.60
2018-01-31T11:42:25.599Z,2.60
2018-01-31T11:44:52.482Z,2.30
2018-01-31T11:47:19.448Z,2.10
2018-01-31T11:49:46.326Z,2.50
2018-01-31T11:52:13.231Z,1.90
2018-01-31T11:54:40.300Z,2.23
2018-01-31T11:57:07.184Z,2.10
2018-01-31T11:59:35.104Z,1.30
2018-01-31T12:02:02.063Z,1.53
2018-01-31T12:04:29.752Z,1.83
2018-01-31T12:06:56.631Z,1.43
2018-01-31T12:09:35.626Z,1.70
2018-01-31T12:12:02.570Z,1.93
2018-01-31T12:14:41.479Z,1.90
2018-01-31T12:17:11.008Z,1.50
2018-01-31T12:19:50.025Z,1.70
2018-01-31T12:22:22.925Z,1.80
2018-01-31T12:25:01.860Z,2.50
2018-01-31T12:27:40.767Z,1.97
2018-01-31T12:30:24.813Z,1.80
2018-01-31T12:33:03.791Z,1.80
2018-01-31T12:35:42.867Z,2.10
2018-01-31T12:38:25.676Z,1.93
2018-01-31T12:40:52.432Z,1.83
2018-01-31T12:43:18.954Z,2.10
2018-01-31T12:45:45.584Z,1.53
2018-01-31T12:48:24.503Z,1.73
2018-01-31T12:51:03.621Z,2.13
2018-01-31T12:53:53.307Z,1.70
2018-01-31T12:56:20.292Z,1.90
2018-01-31T12:58:50.296Z,1.50
2018-01-31T13:01:44.104Z,1.30
2018-01-31T13:04:23.012Z,2.07
2018-01-31T13:07:01.952Z,1.60
2018-01-31T13:09:40.749Z,1.60
2018-01-31T13:12:20.634Z,2.33
2018-01-31T13:15:05.603Z,2.03
2018-01-31T13:17:44.548Z,1.70
2018-01-31T13:20:36.402Z,2.20
2018-01-31T13:23:03.300Z,2.10
2018-01-31T13:25:42.367Z,2.87
2018-01-31T13:28:42.120Z,2.30
2018-01-31T13:31:24.765Z,2.43
2018-01-31T13:34:03.764Z,3.20
2018-01-31T13:36:42.667Z,3.73
2018-01-31T13:39:25.534Z,7.40
2018-01-31T13:42:04.571Z,3.37
2018-01-31T13:44:43.819Z,2.90
2018-01-31T13:47:22.546Z,3.07
2018-01-31T13:50:03.807Z,2.73
2018-01-31T13:52:47.237Z,2.97
2018-01-31T13:55:40.347Z,3.70
2018-01-31T13:58:19.154Z,3.00
2018-01-31T14:00:58.119Z,3.23
2018-01-31T14:03:36.962Z,3.57
2018-01-31T14:06:27.739Z,2.80
2018-01-31T14:09:12.080Z,3.43
2018-01-31T14:11:51.818Z,3.07
2018-01-31T14:14:30.646Z,3.23
2018-01-31T14:17:11.845Z,3.00
2018-01-31T14:19:52.969Z,3.17
2018-01-31T14:22:31.941Z,2.80
2018-01-31T14:25:05.694Z,2.53
2018-01-31T14:27:51.207Z,2.90
2018-01-31T14:30:31.161Z,2.10
2018-01-31T14:33:12.668Z,3.10
2018-01-31T14:35:51.824Z,2.20
2018-01-31T14:38:18.726Z,3.03
2018-01-31T14:40:49.362Z,2.63
2018-01-31T14:43:17.374Z,2.47
2018-01-31T14:45:53.702Z,2.87
2018-01-31T14:48:31.413Z,2.70
2018-01-31T14:51:07.347Z,2.63
2018-01-31T14:53:34.475Z,1.90
2018-01-31T14:56:05.552Z,1.80
2018-01-31T14:58:32.117Z,2.07
2018-01-31T15:01:08.978Z,1.93
2018-01-31T15:03:42.685Z,2.07
2018-01-31T15:06:10.752Z,1.97
2018-01-31T15:08:37.368Z,2.20
2018-01-31T15:11:04.054Z,2.30
2018-01-31T15:13:31.389Z,2.40
2018-01-31T15:15:57.923Z,2.60
2018-01-31T15:18:34.445Z,2.93
2018-01-31T15:21:11.001Z,2.60
2018-01-31T15:23:47.320Z,3.33
2018-01-31T15:26:19.472Z,3.33
2018-01-31T15:28:50.655Z,2.40
2018-01-31T15:31:22.070Z,2.07
2018-01-31T15:33:48.703Z,2.27
2018-01-31T15:36:16.526Z,1.83
2018-01-31T15:38:52.008Z,1.80
2018-01-31T15:41:19.326Z,1.50
2018-01-31T15:43:45.864Z,1.83
2018-01-31T15:46:12.485Z,1.43
2018-01-31T15:48:39.013Z,1.50
2018-01-31T15:51:05.547Z,1.67
2018-01-31T15:53:32.146Z,1.33
2018-01-31T15:55:58.679Z,1.60
2018-01-31T15:58:25.272Z,1.33
2018-01-31T16:00:51.806Z,1.70
2018-01-31T16:03:18.400Z,2.07
2018-01-31T16:05:44.925Z,2.00
2018-01-31T16:08:11.459Z,1.50
2018-01-31T16:10:38.868Z,1.50
2018-01-31T16:13:05.458Z,1.27
2018-01-31T16:15:32.111Z,1.60
2018-01-31T16:17:59.191Z,1.43
2018-01-31T16:20:38.009Z,1.40
2018-01-31T16:23:04.975Z,2.27
2018-01-31T16:25:32.070Z,2.17
2018-01-31T16:28:10.941Z,1.63
2018-01-31T16:30:47.024Z,1.80
2018-01-31T16:33:33.714Z,1.23
2018-01-31T16:36:00.679Z,1.60
2018-01-31T16:38:27.625Z,1.57
2018-01-31T16:40:54.600Z,1.70
2018-01-31T16:43:22.230Z,1.83
2018-01-31T16:45:49.243Z,2.00
2018-01-31T16:48:16.195Z,1.63
2018-01-31T16:50:43.087Z,1.40
2018-01-31T16:53:10.091Z,1.90
2018-01-31T16:55:37.071Z,2.20
2018-01-31T16:58:03.959Z,2.20
2018-01-31T17:00:30.871Z,1.70
2018-01-31T17:02:57.830Z,1.70
2018-01-31T17:05:25.512Z,1.50
2018-01-31T17:07:52.512Z,2.37
2018-01-31T17:10:19.499Z,1.80
2018-01-31T17:12:46.510Z,2.10
2018-01-31T17:15:13.459Z,2.33
2018-01-31T17:17:40.379Z,1.80
2018-01-31T17:20:07.414Z,1.70
2018-01-31T17:22:34.293Z,2.40
2018-01-31T17:25:01.261Z,1.83
2018-01-31T17:27:28.939Z,1.63
2018-01-31T17:29:56.630Z,1.77
2018-01-31T17:32:23.528Z,2.60
2018-01-31T17:34:50.589Z,1.90
2018-01-31T17:37:18.228Z,1.67
2018-01-31T17:39:45.182Z,2.50
2018-01-31T17:42:12.138Z,1.57
2018-01-31T17:44:39.826Z,4.30
2018-01-31T17:47:06.687Z,3.63
2018-01-31T17:49:37.316Z,2.27
2018-01-31T17:52:14.261Z,2.10
2018-01-31T17:54:45.318Z,2.60
2018-01-31T17:57:12.233Z,1.77
2018-01-31T17:59:39.333Z,1.83
2018-01-31T18:02:06.288Z,1.80
2018-01-31T18:04:33.195Z,2.67
2018-01-31T18:07:01.006Z,2.00
2018-01-31T18:09:27.918Z,1.87
2018-01-31T18:11:54.818Z,1.93
2018-01-31T18:14:21.777Z,2.17
2018-01-31T18:16:48.739Z,2.50
2018-01-31T18:19:16.475Z,2.23
2018-01-31T18:21:43.403Z,1.87
2018-01-31T18:24:10.300Z,2.33
2018-01-31T18:26:37.256Z,1.90
2018-01-31T18:29:04.187Z,1.60
2018-01-31T18:31:31.215Z,2.10
2018-01-31T18:33:58.119Z,2.13
2018-01-31T18:36:25.039Z,2.40
2018-01-31T18:38:52.044Z,1.83
2018-01-31T18:41:18.948Z,2.27
2018-01-31T18:43:45.908Z,1.93
2018-01-31T18:46:12.887Z,1.90
2018-01-31T18:48:39.778Z,1.53
2018-01-31T18:51:06.767Z,2.07
2018-01-31T18:53:33.671Z,1.50
2018-01-31T18:56:00.580Z,1.80
2018-01-31T18:58:27.547Z,1.90
2018-01-31T19:00:55.276Z,1.90
2018-01-31T19:03:22.176Z,2.10
2018-01-31T19:05:49.067Z,1.37
2018-01-31T19:08:16.004Z,1.60
2018-01-31T19:10:42.951Z,1.70
2018-01-31T19:13:09.965Z,1.60
2018-01-31T19:15:36.900Z,2.00
2018-01-31T19:18:03.802Z,1.70
2018-01-31T19:20:30.789Z,1.90
2018-01-31T19:22:57.713Z,2.00
2018-01-31T19:25:25.366Z,2.20
2018-01-31T19:27:52.335Z,1.60
2018-01-31T19:30:20.159Z,1.50
2018-01-31T19:32:47.160Z,1.60
2018-01-31T19:35:14.099Z,1.73
2018-01-31T19:37:41.053Z,1.63
2018-01-31T19:40:08.687Z,1.90
2018-01-31T19:42:35.664Z,1.50
2018-01-31T19:45:02.576Z,1.90
2018-01-31T19:47:29.468Z,1.63
2018-01-31T19:49:56.431Z,1.47
2018-01-31T19:52:23.312Z,1.97
2018-01-31T19:54:50.406Z,1.50
2018-01-31T19:57:17.294Z,1.60
2018-01-31T19:59:44.264Z,2.00
2018-01-31T20:02:11.232Z,2.20
2018-01-31T20:04:38.965Z,2.73
2018-01-31T20:07:05.943Z,2.70
2018-01-31T20:09:33.010Z,2.13
2018-01-31T20:11:59.904Z,2.47
2018-01-31T20:14:26.927Z,2.60
2018-01-31T20:16:53.827Z,2.20
2018-01-31T20:19:20.804Z,1.50
2018-01-31T20:21:47.698Z,1.70
2018-01-31T20:24:14.614Z,1.80
2018-01-31T20:26:41.670Z,1.67
2018-01-31T20:29:08.722Z,2.30
2018-01-31T20:31:35.626Z,1.40
2018-01-31T20:34:03.336Z,1.07
2018-01-31T20:36:30.245Z,1.23
2018-01-31T20:38:57.418Z,1.30
2018-01-31T20:41:24.402Z,1.37
2018-01-31T20:43:51.294Z,1.73
2018-01-31T20:46:18.245Z,1.20
2018-01-31T20:48:45.174Z,1.07
2018-01-31T20:51:12.814Z,1.10
2018-01-31T20:53:40.509Z,1.30
2018-01-31T20:56:07.388Z,1.30
2018-01-31T20:58:34.358Z,0.60
2018-01-31T21:01:01.243Z,1.50
2018-01-31T21:03:28.234Z,1.00
2018-01-31T21:05:55.121Z,1.10
2018-01-31T21:08:22.871Z,1.10
2018-01-31T21:10:51.173Z,0.60
2018-01-31T21:13:18.298Z,1.10
2018-01-31T21:15:47.018Z,0.50
2018-01-31T21:18:14.003Z,0.97
2018-01-31T21:20:40.984Z,0.70
2018-01-31T21:23:07.981Z,0.60
2018-01-31T21:25:35.366Z,1.27
2018-01-31T21:28:02.247Z,0.90
2018-01-31T21:30:29.235Z,0.50
2018-01-31T21:32:56.376Z,0.90
2018-01-31T21:35:23.276Z,0.87
2018-01-31T21:37:50.935Z,0.60
2018-01-31T21:40:17.902Z,0.60
2018-01-31T21:42:44.799Z,0.80
2018-01-31T21:45:11.827Z,0.70
2018-01-31T21:47:38.719Z,0.63
2018-01-31T21:50:06.380Z,0.80
2018-01-31T21:52:33.366Z,0.80
2018-01-31T21:55:00.259Z,0.83
2018-01-31T21:57:39.334Z,4.37
2018-01-31T22:00:06.340Z,2.17
2018-01-31T22:02:33.255Z,0.90
2018-01-31T22:05:00.207Z,1.53
2018-01-31T22:07:27.076Z,0.80
2018-01-31T22:09:54.044Z,0.60
2018-01-31T22:12:21.669Z,0.80
2018-01-31T22:15:00.369Z,1.03
2018-01-31T22:17:42.040Z,0.70
2018-01-31T22:20:12.317Z,0.95
2018-01-31T22:22:51.350Z,0.57
2018-01-31T22:25:19.511Z,0.80
2018-01-31T22:27:54.825Z,0.80
2018-01-31T22:30:22.399Z,0.80
2018-01-31T22:33:00.253Z,0.80
2018-01-31T22:35:40.021Z,0.80
2018-01-31T22:38:07.645Z,1.10
2018-01-31T22:40:46.178Z,1.37
2018-01-31T22:43:13.797Z,0.90
2018-01-31T22:45:40.747Z,0.82
2018-01-31T22:48:07.707Z,0.97
2018-01-31T22:50:34.678Z,0.90
2018-01-31T22:53:08.624Z,0.60
2018-01-31T22:55:39.872Z,0.90
2018-01-31T22:58:06.886Z,0.77
2018-01-31T23:00:35.658Z,0.70
2018-01-31T23:03:09.575Z,0.77
2018-01-31T23:05:37.960Z,0.80
2018-01-31T23:08:06.115Z,0.80
2018-01-31T23:10:33.430Z,0.90
2018-01-31T23:13:06.455Z,0.83
2018-01-31T23:15:36.256Z,0.67
2018-01-31T23:18:24.137Z,0.80
2018-01-31T23:20:51.039Z,0.97
2018-01-31T23:23:17.959Z,1.50
2018-01-31T23:25:44.847Z,0.70
2018-01-31T23:28:11.774Z,1.13
2018-01-31T23:30:38.638Z,0.80
2018-01-31T23:33:05.593Z,0.70
2018-01-31T23:35:32.575Z,1.37
2018-01-31T23:37:59.564Z,0.80
2018-01-31T23:40:26.443Z,0.90
2018-01-31T23:42:53.391Z,1.20
2018-01-31T23:45:21.041Z,0.60
2018-01-31T23:47:48.029Z,0.70
2018-01-31T23:50:14.910Z,1.03
2018-01-31T23:52:41.784Z,1.03
2018-01-31T23:55:08.733Z,1.20
2018-01-31T23:57:35.679Z,1.00
